Main page
METAR-TAF:

METAR-TAF

Airports :

Simón Bolívar International Airport

Caracas, Venezuela

latitude: 10-36N, longitude: 066-59W, elevation: 43 m

Current weather observation

The report was made 49 minutes ago, at 05:00 UTC
Wind 2 kt from the South/Southeast
Temperature 24°C
Humidity 89%
Pressure 1012 hPa
Visibility 10 km or more
Broken clouds at a height of 1600 ft

METAR: SVMI 130500Z 16002KT 9999 BKN016 24/22 Q1012

Time: 01:49 (05:49 UTC)

Forecast

The report was made 1 hour and 49 minutes ago, at 04:00 UTC
Forecast valid from 13 at 06 UTC to 14 at 06 UTC
Wind kt from the North
Visibility 10 km or more
Scattered clouds at a height of 1600 ft
Temporary
from 13 at 06 UTC to 13 at 10 UTC
Few clouds at a height of 1600 ft

TAF: SVMI 130400Z 1306/1406 00000KT 9999 SCT016 TX31/18Z TN24/10Z TEMPO 1306/1310 FEW016

Weather observations and forecasts of more than 4000 airports (METAR and TAF reports).

The available stations are represented by yellow and red dots on the map.

Hover mouse over dot to see the name of the station.

Then click to see weather observations and forecasts.

To change the map : click on the green buttons with a black cross to zoom in, on the green button with a dash to zoom out, or on the green arrows for adjacent maps.


METAR-TAF: